Time;durP1;ratioP1;P1;durP2;ratioP2;P2;SDS_P1;SDS_P2;PMS_P1;PMS_P2;Temp;Humidity;BMP_temperature;BMP_pressure;BME280_temperature;BME280_humidity;BME280_pressure;Samples;Min_cycle;Max_cycle;Signal;HPM_P1;HPM_P2
2022/09/24 00:00:12;;;;;;;3.97;2.90;;;17.90;69.90;;;;;;10367032;28;20399;-55
2022/09/24 00:05:13;;;;;;;5.05;3.03;;;17.90;69.90;;;;;;10366750;28;20034;-55
2022/09/24 00:10:14;;;;;;;2.97;2.20;;;17.90;69.90;;;;;;10366555;28;20109;-55
2022/09/24 00:15:14;;;;;;;5.18;2.90;;;17.90;69.90;;;;;;10364979;28;20022;-55
2022/09/24 00:20:15;;;;;;;3.10;2.20;;;17.80;69.90;;;;;;10382381;28;20117;-55
2022/09/24 00:30:40;;;;;;;4.18;2.85;;;17.80;69.90;;;;;;10366356;28;20519;-54
2022/09/24 00:35:41;;;;;;;3.97;2.78;;;17.80;69.90;;;;;;10363601;28;20018;-56
2022/09/24 00:40:42;;;;;;;2.72;2.20;;;17.80;69.90;;;;;;10376961;28;20080;-55
2022/09/24 00:45:42;;;;;;;3.55;2.75;;;17.80;69.90;;;;;;10372729;28;20105;-55
2022/09/24 00:50:43;;;;;;;4.45;2.78;;;17.80;69.90;;;;;;10363046;28;20030;-55
2022/09/24 00:55:50;;;;;;;5.38;4.13;;;17.80;69.90;;;;;;10364270;28;20044;-56
2022/09/24 01:00:58;;;;;;;4.45;3.60;;;17.80;69.90;;;;;;10364593;28;20033;-55
2022/09/24 01:05:59;;;;;;;6.55;3.22;;;17.80;69.90;;;;;;10363157;28;20026;-55
2022/09/24 01:11:29;;;;;;;3.80;2.70;;;17.80;69.90;;;;;;10363191;28;20053;-55
2022/09/24 01:16:49;;;;;;;3.65;2.63;;;17.80;69.80;;;;;;10362878;28;20026;-55
2022/09/24 01:21:56;;;;;;;3.58;2.20;;;17.80;69.80;;;;;;10353269;28;20541;-54
2022/09/24 01:27:17;;;;;;;4.93;3.25;;;17.80;69.70;;;;;;10362795;28;20020;-55
2022/09/24 01:32:44;;;;;;;4.93;2.85;;;17.80;69.70;;;;;;10364501;28;20033;-55
2022/09/24 01:37:55;;;;;;;4.22;2.80;;;17.80;69.60;;;;;;10362422;28;20733;-55
2022/09/24 01:42:58;;;;;;;3.72;2.58;;;17.80;69.60;;;;;;10362594;28;20117;-55
2022/09/24 01:48:00;;;;;;;4.43;2.58;;;17.80;69.60;;;;;;10361903;28;20025;-55
2022/09/24 01:53:18;;;;;;;4.60;3.00;;;17.80;69.70;;;;;;10370089;28;20114;-55
2022/09/24 01:58:34;;;;;;;3.63;2.55;;;17.80;69.60;;;;;;10362925;28;20087;-55
2022/09/24 02:03:42;;;;;;;3.28;2.35;;;17.80;69.50;;;;;;10369073;28;20022;-56
2022/09/24 02:08:46;;;;;;;3.92;2.60;;;17.80;69.60;;;;;;10370566;28;20513;-56
2022/09/24 02:14:09;;;;;;;2.75;2.03;;;17.80;69.50;;;;;;10369794;28;20051;-55
2022/09/24 02:19:13;;;;;;;4.15;3.00;;;17.80;69.50;;;;;;10380135;28;20040;-56
2022/09/24 02:24:48;;;;;;;3.92;3.00;;;17.80;69.50;;;;;;10369996;28;20106;-55
2022/09/24 02:29:50;;;;;;;4.68;3.13;;;17.80;69.40;;;;;;10358665;28;20041;-55
2022/09/24 02:35:00;;;;;;;3.30;2.60;;;17.80;69.40;;;;;;10382295;28;20018;-55
2022/09/24 02:40:06;;;;;;;4.13;2.72;;;17.80;69.40;;;;;;10368261;28;20060;-56
2022/09/24 02:45:09;;;;;;;3.10;2.42;;;17.80;69.40;;;;;;10381745;28;20025;-56
2022/09/24 02:50:10;;;;;;;3.47;2.40;;;17.80;69.40;;;;;;10378514;28;20679;-55
2022/09/24 02:55:11;;;;;;;3.85;2.70;;;17.80;69.40;;;;;;10372377;28;20535;-55
2022/09/24 03:00:13;;;;;;;3.90;2.95;;;17.80;69.30;;;;;;10368982;28;20034;-56
2022/09/24 03:05:17;;;;;;;3.70;2.67;;;17.70;69.30;;;;;;10368753;28;20022;-55
2022/09/24 03:10:17;;;;;;;3.63;2.45;;;17.80;69.30;;;;;;10367591;28;20025;-56
2022/09/24 03:15:18;;;;;;;5.30;3.13;;;17.80;69.30;;;;;;10366440;28;20053;-56
2022/09/24 03:20:19;;;;;;;3.92;2.60;;;17.80;69.30;;;;;;10371862;28;20036;-56
2022/09/24 03:25:20;;;;;;;4.57;2.85;;;17.80;69.40;;;;;;10367833;28;20057;-55
2022/09/24 03:35:41;;;;;;;3.70;2.80;;;17.70;69.20;;;;;;10366470;28;20042;-55
2022/09/24 03:40:42;;;;;;;3.80;2.67;;;17.80;69.20;;;;;;10365943;28;20409;-55
2022/09/24 03:45:42;;;;;;;4.70;3.05;;;17.70;69.20;;;;;;10366819;28;20101;-56
2022/09/24 03:50:44;;;;;;;3.80;3.15;;;17.70;69.20;;;;;;10367082;28;20087;-55
2022/09/24 03:55:55;;;;;;;4.32;2.70;;;17.70;69.10;;;;;;10366933;28;20454;-55
2022/09/24 04:00:56;;;;;;;5.88;2.88;;;17.70;69.20;;;;;;10366863;28;20473;-55
2022/09/24 04:05:57;;;;;;;5.03;3.40;;;17.70;69.20;;;;;;10365306;28;20014;-55
2022/09/24 04:10:58;;;;;;;4.22;2.70;;;17.70;69.20;;;;;;10363102;28;20030;-56
2022/09/24 04:16:03;;;;;;;5.03;3.28;;;17.70;69.10;;;;;;10364502;28;20436;-55
2022/09/24 04:21:04;;;;;;;3.92;3.20;;;17.80;69.20;;;;;;10364974;28;20089;-55
2022/09/24 04:26:04;;;;;;;4.18;2.78;;;17.70;69.10;;;;;;10364248;28;20519;-56
2022/09/24 04:31:05;;;;;;;3.67;2.55;;;17.70;69.10;;;;;;10363682;28;20050;-56
2022/09/24 04:36:06;;;;;;;3.88;2.80;;;17.70;69.10;;;;;;10364502;28;20022;-55
2022/09/24 04:41:08;;;;;;;4.28;3.22;;;17.70;69.10;;;;;;10364546;28;20566;-55
2022/09/24 04:46:08;;;;;;;3.60;2.60;;;17.70;69.00;;;;;;10361096;28;20033;-54
2022/09/24 04:51:09;;;;;;;3.75;2.83;;;17.70;69.10;;;;;;10360778;28;20026;-54
2022/09/24 04:56:10;;;;;;;4.10;3.08;;;17.70;69.10;;;;;;10361426;28;20105;-54
2022/09/24 05:01:12;;;;;;;3.40;2.70;;;17.70;69.10;;;;;;10361538;28;20112;-54
2022/09/24 05:06:12;;;;;;;4.28;3.33;;;17.70;69.10;;;;;;10362330;28;20113;-55
2022/09/24 05:11:13;;;;;;;5.13;3.95;;;17.70;69.10;;;;;;10365784;28;20026;-55
2022/09/24 05:16:14;;;;;;;4.55;3.42;;;17.70;69.10;;;;;;10371362;28;20523;-55
2022/09/24 05:21:14;;;;;;;11.30;3.95;;;17.70;69.10;;;;;;10374132;28;20077;-54
2022/09/24 05:31:35;;;;;;;7.85;5.05;;;17.90;70.10;;;;;;10364025;28;20034;-55
2022/09/24 05:36:36;;;;;;;13.55;4.95;;;18.10;70.00;;;;;;10362499;28;20022;-56
2022/09/24 05:41:38;;;;;;;6.50;4.72;;;18.20;70.60;;;;;;10361007;28;20049;-54
2022/09/24 05:46:39;;;;;;;12.52;5.20;;;18.20;70.50;;;;;;10361298;28;20105;-55
2022/09/24 05:51:39;;;;;;;13.23;5.93;;;18.10;71.20;;;;;;10372862;28;20021;-53
2022/09/24 05:56:40;;;;;;;14.63;5.80;;;18.10;70.80;;;;;;10363659;28;20041;-55
2022/09/24 06:01:41;;;;;;;11.95;6.32;;;18.10;71.40;;;;;;10357510;28;20062;-53
2022/09/24 06:06:42;;;;;;;23.48;5.43;;;18.10;70.90;;;;;;10357918;28;20053;-55
2022/09/24 06:11:43;;;;;;;21.25;6.85;;;18.10;71.20;;;;;;10359425;28;20108;-56
2022/09/24 06:16:43;;;;;;;18.90;5.95;;;18.10;71.10;;;;;;10358690;28;20034;-56
2022/09/24 06:21:44;;;;;;;24.02;6.00;;;18.10;71.10;;;;;;10375281;28;20034;-56
2022/09/24 06:26:45;;;;;;;18.48;5.93;;;18.10;71.10;;;;;;10361520;28;20117;-55
2022/09/24 06:31:46;;;;;;;24.58;6.60;;;18.20;71.00;;;;;;10361879;28;20397;-60
2022/09/24 06:36:47;;;;;;;15.20;7.22;;;18.10;71.10;;;;;;10370688;28;20037;-60
2022/09/24 06:41:49;;;;;;;15.30;6.80;;;18.00;71.50;;;;;;10370024;28;20117;-61
2022/09/24 06:46:50;;;;;;;13.80;5.90;;;17.90;71.60;;;;;;10373217;28;20396;-61
2022/09/24 06:51:53;;;;;;;18.30;7.32;;;17.90;71.40;;;;;;10386637;28;20108;-61
2022/09/24 06:56:53;;;;;;;23.58;6.70;;;17.90;71.50;;;;;;10367193;28;20026;-63
2022/09/24 07:01:54;;;;;;;22.98;6.35;;;17.90;71.80;;;;;;10363502;28;20033;-61
2022/09/24 07:12:14;;;;;;;19.00;6.40;;;17.90;71.90;;;;;;10376629;28;20029;-64
2022/09/24 07:17:15;;;;;;;26.02;6.55;;;17.90;72.10;;;;;;10367784;28;20067;-61
2022/09/24 07:22:15;;;;;;;26.85;8.32;;;17.90;74.30;;;;;;10367733;28;20045;-61
2022/09/24 07:27:16;;;;;;;30.85;6.93;;;18.00;74.50;;;;;;10362309;28;20045;-62
2022/09/24 07:32:17;;;;;;;21.98;6.78;;;18.00;74.00;;;;;;10367526;28;20108;-60
2022/09/24 07:37:18;;;;;;;28.50;6.38;;;18.20;74.00;;;;;;10367125;28;20627;-60
2022/09/24 07:42:18;;;;;;;26.90;7.25;;;18.10;73.20;;;;;;10367107;28;20438;-62
2022/09/24 07:47:19;;;;;;;17.20;6.85;;;18.10;73.30;;;;;;10366927;28;20381;-61
2022/09/24 07:52:20;;;;;;;20.80;6.65;;;18.10;73.10;;;;;;10382537;28;20049;-61
2022/09/24 07:57:20;;;;;;;24.80;6.70;;;18.20;73.20;;;;;;10368291;28;20101;-58
2022/09/24 08:02:21;;;;;;;18.30;6.97;;;18.10;73.00;;;;;;10376883;28;20109;-61
2022/09/24 08:07:22;;;;;;;17.70;6.50;;;18.10;72.80;;;;;;10365536;28;20046;-59
2022/09/24 08:12:26;;;;;;;13.23;6.90;;;18.00;73.00;;;;;;10365423;28;20040;-60
2022/09/24 08:17:27;;;;;;;18.83;6.90;;;18.00;72.90;;;;;;10369188;28;20024;-60
2022/09/24 08:22:27;;;;;;;16.25;6.85;;;17.90;73.00;;;;;;10367917;28;20128;-61
2022/09/24 08:27:28;;;;;;;16.50;5.55;;;17.90;73.00;;;;;;10377235;28;20117;-60
2022/09/24 08:32:29;;;;;;;16.27;6.40;;;17.90;72.70;;;;;;10374100;28;20120;-60
2022/09/24 08:37:30;;;;;;;19.40;6.60;;;17.90;72.60;;;;;;10362329;28;20070;-59
2022/09/24 08:43:00;;;;;;;12.73;6.00;;;17.90;72.90;;;;;;10363589;28;20425;-59
2022/09/24 08:48:18;;;;;;;14.25;6.20;;;17.90;73.00;;;;;;10367428;28;20351;-60
2022/09/24 08:53:32;;;;;;;24.83;6.35;;;17.80;72.90;;;;;;10364804;28;20026;-56
2022/09/24 08:58:51;;;;;;;15.18;5.45;;;17.80;72.70;;;;;;10359665;28;20124;-54
2022/09/24 09:04:03;;;;;;;8.73;5.45;;;17.90;72.80;;;;;;10360248;28;20034;-54
2022/09/24 09:09:25;;;;;;;27.55;5.72;;;17.90;72.90;;;;;;10361525;28;20042;-55
2022/09/24 09:15:02;;;;;;;11.40;5.93;;;17.90;72.60;;;;;;10360667;28;20037;-54
2022/09/24 09:20:18;;;;;;;10.07;4.85;;;17.80;72.50;;;;;;10365873;28;20500;-55
2022/09/24 09:25:27;;;;;;;11.57;5.55;;;17.80;72.30;;;;;;10363262;28;20056;-54
2022/09/24 09:30:42;;;;;;;16.27;7.07;;;17.80;72.50;;;;;;10361806;28;20017;-56
2022/09/24 09:35:55;;;;;;;11.13;5.95;;;17.80;72.60;;;;;;10362139;28;20108;-56
2022/09/24 09:41:15;;;;;;;10.23;4.70;;;17.90;72.90;;;;;;10349079;28;20117;-54
2022/09/24 09:46:32;;;;;;;14.93;5.65;;;17.90;72.60;;;;;;10359120;28;20022;-55
2022/09/24 09:51:41;;;;;;;17.23;7.07;;;18.00;73.30;;;;;;10360675;28;20030;-56
2022/09/24 09:56:47;;;;;;;13.35;6.35;;;18.20;75.10;;;;;;10363204;28;20029;-55
2022/09/24 10:01:54;;;;;;;19.75;7.05;;;18.40;75.00;;;;;;10361219;28;20026;-51
2022/09/24 10:07:16;;;;;;;26.80;9.45;;;18.50;73.90;;;;;;10360885;28;20041;-54
2022/09/24 10:12:21;;;;;;;17.83;8.80;;;18.60;74.50;;;;;;10358033;28;20112;-57
2022/09/24 10:17:32;;;;;;;23.30;10.27;;;18.60;73.60;;;;;;10368628;28;20025;-53
2022/09/24 10:22:34;;;;;;;29.88;10.05;;;18.60;73.30;;;;;;10364645;28;20084;-55
2022/09/24 10:27:36;;;;;;;22.83;8.88;;;18.60;73.40;;;;;;10379328;28;20014;-56
2022/09/24 10:32:39;;;;;;;18.05;8.90;;;18.70;73.00;;;;;;10372987;28;20030;-54
2022/09/24 10:37:57;;;;;;;14.25;8.32;;;18.70;72.10;;;;;;10354279;28;20033;-53
2022/09/24 10:43:00;;;;;;;23.10;8.10;;;18.60;72.50;;;;;;10366291;28;20037;-55
2022/09/24 10:48:25;;;;;;;16.45;7.90;;;18.40;72.70;;;;;;10368190;28;20018;-53
2022/09/24 10:53:57;;;;;;;17.02;7.85;;;18.40;74.00;;;;;;10368082;28;20559;-59
2022/09/24 10:59:25;;;;;;;20.58;8.85;;;18.40;73.30;;;;;;10347788;28;20041;-56
2022/09/24 11:04:42;;;;;;;21.70;8.15;;;18.40;72.80;;;;;;10367056;28;20068;-56
2022/09/24 11:10:50;;;;;;;24.17;7.90;;;18.40;73.10;;;;;;10367175;28;20018;-57
2022/09/24 11:16:28;;;;;;;29.48;10.07;;;18.60;72.60;;;;;;10368204;28;20056;-57
2022/09/24 11:22:08;;;;;;;19.75;10.43;;;18.70;72.80;;;;;;10371837;28;20075;-56
2022/09/24 11:27:43;;;;;;;20.83;7.60;;;18.60;72.70;;;;;;10362119;28;20026;-55
2022/09/24 11:33:03;;;;;;;12.95;6.63;;;18.70;72.80;;;;;;10367905;28;20034;-54
2022/09/24 11:38:18;;;;;;;22.17;7.78;;;18.70;72.80;;;;;;10381346;28;20018;-55
2022/09/24 11:44:00;;;;;;;27.73;9.60;;;18.70;73.00;;;;;;10367875;28;20050;-55
2022/09/24 11:49:42;;;;;;;32.70;8.23;;;18.60;73.30;;;;;;10367352;28;20018;-55
2022/09/24 11:54:51;;;;;;;34.13;8.40;;;18.60;73.40;;;;;;10365238;28;20091;-54
2022/09/24 12:00:06;;;;;;;41.10;8.48;;;18.50;73.40;;;;;;10368042;28;20065;-55
2022/09/24 12:05:45;;;;;;;37.22;10.80;;;18.50;73.50;;;;;;10379349;28;20025;-55
2022/09/24 12:11:10;;;;;;;53.78;12.95;;;18.50;73.80;;;;;;10364662;28;20584;-55
2022/09/24 12:16:16;;;;;;;48.45;11.45;;;18.50;74.80;;;;;;10365041;28;20087;-55
2022/09/24 12:21:26;;;;;;;44.95;11.35;;;18.50;75.50;;;;;;10374266;28;20034;-57
2022/09/24 12:26:28;;;;;;;49.20;10.90;;;18.50;76.20;;;;;;10362230;28;20022;-55
2022/09/24 12:37:09;;;;;;;49.25;11.35;;;18.60;76.90;;;;;;10377508;28;20385;-54
2022/09/24 12:42:12;;;;;;;53.33;11.07;;;18.60;77.50;;;;;;10363885;28;20135;-55
2022/09/24 12:47:22;;;;;;;39.97;10.30;;;18.70;77.20;;;;;;10363276;28;20105;-55
2022/09/24 12:52:41;;;;;;;49.88;11.40;;;18.70;78.10;;;;;;10352207;28;20018;-58
2022/09/24 12:58:06;;;;;;;38.42;10.40;;;18.80;78.00;;;;;;10363540;28;20022;-55
2022/09/24 13:03:31;;;;;;;53.17;11.98;;;18.90;78.80;;;;;;10363500;28;20157;-55
2022/09/24 13:08:38;;;;;;;43.53;11.93;;;18.90;79.50;;;;;;10354580;28;20105;-56
2022/09/24 13:13:43;;;;;;;40.55;10.27;;;19.00;79.30;;;;;;10360563;28;20033;-52
2022/09/24 13:18:56;;;;;;;43.35;10.55;;;19.00;79.70;;;;;;10363699;28;20361;-54
2022/09/24 13:23:57;;;;;;;42.47;10.07;;;19.00;79.80;;;;;;10363002;28;20376;-54
2022/09/24 13:29:04;;;;;;;29.02;9.30;;;19.00;80.10;;;;;;10361697;28;20022;-56
2022/09/24 13:34:24;;;;;;;35.20;9.07;;;19.10;80.30;;;;;;10363697;28;20036;-52
2022/09/24 13:39:50;;;;;;;28.30;9.65;;;19.10;79.80;;;;;;10362179;28;20041;-53
2022/09/24 13:45:22;;;;;;;35.05;10.50;;;19.10;78.90;;;;;;10359661;28;20029;-54
2022/09/24 13:50:58;;;;;;;30.50;9.77;;;18.90;79.50;;;;;;10349956;28;20070;-53
2022/09/24 13:56:04;;;;;;;20.50;8.40;;;18.80;78.90;;;;;;10355559;28;20133;-55
2022/09/24 14:01:18;;;;;;;31.00;9.30;;;18.70;78.90;;;;;;10369757;28;20049;-54
2022/09/24 14:06:41;;;;;;;25.55;9.68;;;18.70;79.20;;;;;;10380007;28;20053;-55
2022/09/24 14:11:54;;;;;;;22.77;10.10;;;18.70;79.50;;;;;;10369399;28;20029;-54
2022/09/24 14:17:07;;;;;;;37.88;10.00;;;18.70;79.60;;;;;;10370537;28;20022;-54
2022/09/24 14:22:21;;;;;;;23.38;8.55;;;18.70;79.50;;;;;;10377390;28;20109;-54
2022/09/24 14:27:25;;;;;;;20.80;9.02;;;18.70;79.50;;;;;;10368831;28;20060;-54
2022/09/24 14:32:38;;;;;;;19.52;6.97;;;18.70;79.50;;;;;;10398179;28;20113;-54
2022/09/24 14:37:44;;;;;;;16.90;7.10;;;18.70;79.50;;;;;;10368431;28;20457;-53
2022/09/24 14:43:00;;;;;;;24.20;8.27;;;18.70;79.50;;;;;;10384059;28;20382;-54
2022/09/24 14:48:27;;;;;;;33.33;8.68;;;18.70;80.50;;;;;;10375825;28;20030;-56
2022/09/24 14:53:33;;;;;;;31.27;8.18;;;18.80;82.20;;;;;;10365427;28;20022;-55
2022/09/24 14:58:37;;;;;;;33.08;7.97;;;19.00;82.40;;;;;;10367416;28;20517;-57
2022/09/24 15:03:42;;;;;;;25.13;6.72;;;19.00;82.00;;;;;;10368539;28;20030;-55
2022/09/24 15:08:50;;;;;;;33.05;6.32;;;19.00;82.80;;;;;;10366835;28;20029;-56
2022/09/24 15:14:16;;;;;;;32.47;8.05;;;19.00;82.50;;;;;;10367190;28;20160;-55
2022/09/24 15:19:27;;;;;;;48.85;8.85;;;19.10;82.60;;;;;;10386201;28;20068;-54
2022/09/24 15:24:28;;;;;;;35.42;8.68;;;19.10;82.50;;;;;;10368261;28;20018;-55
2022/09/24 15:29:29;;;;;;;44.45;8.98;;;19.20;83.10;;;;;;10380955;28;20025;-54
2022/09/24 15:34:30;;;;;;;50.38;9.25;;;19.20;83.20;;;;;;10381085;28;20029;-52
2022/09/24 15:39:30;;;;;;;30.75;7.13;;;19.30;82.60;;;;;;10367138;28;20120;-54
2022/09/24 15:44:31;;;;;;;32.63;7.50;;;19.40;82.70;;;;;;10350966;28;20052;-51
2022/09/24 15:49:32;;;;;;;33.22;7.50;;;19.70;82.60;;;;;;10365866;28;20025;-55
2022/09/24 15:54:33;;;;;;;29.10;7.55;;;19.90;82.80;;;;;;10367011;28;20112;-55
2022/09/24 15:59:34;;;;;;;24.63;6.28;;;20.20;81.50;;;;;;10365709;28;20109;-54
2022/09/24 16:04:34;;;;;;;29.65;6.65;;;20.20;81.60;;;;;;10367151;28;20060;-54
2022/09/24 16:09:35;;;;;;;25.85;7.28;;;20.40;82.30;;;;;;10380041;28;20045;-51
2022/09/24 16:14:36;;;;;;;27.60;6.57;;;20.60;81.70;;;;;;10365740;28;20426;-55
2022/09/24 16:19:37;;;;;;;22.70;5.95;;;20.80;81.60;;;;;;10375803;28;20556;-53
2022/09/24 16:24:37;;;;;;;31.88;7.03;;;20.80;81.40;;;;;;10364733;28;20137;-55
2022/09/24 16:29:38;;;;;;;26.45;6.53;;;20.80;80.90;;;;;;10348277;28;20061;-54
2022/09/24 16:34:39;;;;;;;17.90;4.60;;;20.50;82.20;;;;;;10365883;28;20108;-64
2022/09/24 16:39:40;;;;;;;22.88;5.28;;;20.30;82.20;;;;;;10363684;28;20049;-54
2022/09/24 16:44:41;;;;;;;18.92;5.78;;;20.30;82.40;;;;;;10364632;28;20033;-55
2022/09/24 16:49:42;;;;;;;31.52;6.60;;;20.20;82.70;;;;;;10362531;28;20054;-54
2022/09/24 16:54:42;;;;;;;24.27;5.05;;;20.00;83.00;;;;;;10364545;28;20041;-56
2022/09/24 16:59:43;;;;;;;30.92;6.38;;;19.90;83.00;;;;;;10373147;28;20065;-53
2022/09/24 17:04:43;;;;;;;21.20;5.38;;;19.90;83.10;;;;;;10364412;28;20093;-53
2022/09/24 17:15:04;;;;;;;24.10;4.97;;;19.90;83.40;;;;;;10363781;28;20657;-53
2022/09/24 17:20:05;;;;;;;16.48;3.60;;;19.90;82.70;;;;;;10376236;28;20036;-52
2022/09/24 17:25:07;;;;;;;23.33;5.45;;;19.90;82.30;;;;;;10362803;28;20033;-54
2022/09/24 17:30:09;;;;;;;10.63;3.30;;;19.90;81.80;;;;;;10363462;28;20041;-56
2022/09/24 17:35:10;;;;;;;12.27;3.22;;;20.00;80.70;;;;;;10364207;28;20030;-55
2022/09/24 17:40:11;;;;;;;14.10;4.45;;;20.20;79.80;;;;;;10362104;28;20054;-55
2022/09/24 17:45:13;;;;;;;12.30;4.15;;;19.80;80.30;;;;;;10362790;28;20058;-56
2022/09/24 17:50:14;;;;;;;19.20;6.45;;;19.60;80.50;;;;;;10361933;28;20557;-54
2022/09/24 17:55:15;;;;;;;20.45;5.72;;;19.50;80.60;;;;;;10362787;28;20037;-54
2022/09/24 18:00:16;;;;;;;14.20;6.20;;;19.40;80.30;;;;;;10373923;28;20380;-56
2022/09/24 18:05:17;;;;;;;9.40;4.55;;;19.40;80.20;;;;;;10361798;28;20022;-55
2022/09/24 18:10:17;;;;;;;23.45;5.75;;;19.30;80.30;;;;;;10361893;28;20095;-55
2022/09/24 18:15:18;;;;;;;17.77;5.75;;;19.30;80.30;;;;;;10363034;28;20170;-54
2022/09/24 18:20:19;;;;;;;11.93;4.03;;;19.30;80.10;;;;;;10366846;28;20109;-55
2022/09/24 18:25:21;;;;;;;10.10;3.72;;;19.20;79.90;;;;;;10376500;28;20022;-55
2022/09/24 18:30:23;;;;;;;18.67;4.00;;;19.20;79.70;;;;;;10359684;28;20087;-55
2022/09/24 18:35:23;;;;;;;12.82;3.75;;;19.10;79.50;;;;;;10358990;28;20193;-55
2022/09/24 18:40:24;;;;;;;9.32;3.55;;;19.10;79.40;;;;;;10361351;28;20121;-56
2022/09/24 18:45:25;;;;;;;13.43;3.85;;;19.10;79.30;;;;;;10367023;28;20018;-56
2022/09/24 18:50:27;;;;;;;15.35;5.85;;;19.10;79.30;;;;;;10368948;28;20025;-56
2022/09/24 18:55:29;;;;;;;9.70;4.38;;;19.10;79.00;;;;;;10369474;28;20030;-57
2022/09/24 19:05:51;;;;;;;7.85;4.35;;;19.10;78.50;;;;;;10368553;28;20097;-57
2022/09/24 19:10:52;;;;;;;8.90;3.63;;;19.10;78.60;;;;;;10362752;28;20133;-57
2022/09/24 19:15:52;;;;;;;9.75;4.07;;;19.10;78.70;;;;;;10367756;28;20560;-56
2022/09/24 19:20:55;;;;;;;9.02;3.45;;;19.10;78.80;;;;;;10370061;28;20108;-57
2022/09/24 19:26:03;;;;;;;7.13;3.10;;;19.20;78.90;;;;;;10363097;28;20057;-56
2022/09/24 19:31:05;;;;;;;6.80;3.40;;;19.20;78.20;;;;;;10366084;28;20021;-56
2022/09/24 19:36:06;;;;;;;6.30;2.97;;;19.10;78.30;;;;;;10364165;28;20032;-55
2022/09/24 19:41:14;;;;;;;6.63;3.35;;;19.00;78.50;;;;;;10363461;28;20049;-55
2022/09/24 19:46:18;;;;;;;8.70;2.97;;;19.00;78.50;;;;;;10364665;28;20025;-55
2022/09/24 19:51:25;;;;;;;5.88;3.42;;;18.90;78.40;;;;;;10365984;28;20030;-56
2022/09/24 19:56:26;;;;;;;6.63;3.03;;;18.90;78.40;;;;;;10365686;28;20040;-56
2022/09/24 20:01:30;;;;;;;5.60;2.53;;;18.90;78.30;;;;;;10367675;28;20041;-55
2022/09/24 20:06:36;;;;;;;4.90;3.00;;;18.80;78.20;;;;;;10365722;28;20045;-57
2022/09/24 20:11:36;;;;;;;5.88;2.70;;;18.80;78.20;;;;;;10366987;28;20548;-56
2022/09/24 20:16:39;;;;;;;5.65;2.45;;;18.80;78.20;;;;;;10367081;28;20034;-56
2022/09/24 20:21:39;;;;;;;5.90;2.45;;;18.80;78.00;;;;;;10392197;28;20440;-56
2022/09/24 20:32:00;;;;;;;4.40;2.13;;;18.70;77.90;;;;;;10379599;28;20042;-54
2022/09/24 20:37:03;;;;;;;4.53;2.50;;;18.70;77.80;;;;;;10378814;28;20045;-56
2022/09/24 20:42:04;;;;;;;6.85;2.47;;;18.70;77.80;;;;;;10364659;28;20057;-56
2022/09/24 20:47:05;;;;;;;4.28;2.13;;;18.70;77.80;;;;;;10364297;28;20069;-55
2022/09/24 20:52:06;;;;;;;5.80;2.50;;;18.70;77.60;;;;;;10364531;28;20121;-56
2022/09/24 20:57:07;;;;;;;4.00;2.10;;;18.70;77.70;;;;;;10363508;28;20076;-56
2022/09/24 21:02:09;;;;;;;5.53;2.50;;;18.70;77.60;;;;;;10364949;28;20033;-56
2022/09/24 21:07:10;;;;;;;3.75;2.17;;;18.70;77.50;;;;;;10362814;28;20022;-56
2022/09/24 21:12:11;;;;;;;3.22;2.00;;;18.70;77.30;;;;;;10363550;28;20165;-56
2022/09/24 21:17:11;;;;;;;4.10;2.33;;;18.70;77.20;;;;;;10368010;28;20018;-55
2022/09/24 21:22:12;;;;;;;6.28;2.30;;;18.70;77.10;;;;;;10371928;28;20424;-55
2022/09/24 21:27:15;;;;;;;3.80;2.00;;;18.70;77.00;;;;;;10364195;28;20140;-56
2022/09/24 21:32:16;;;;;;;4.40;2.22;;;18.70;77.00;;;;;;10363396;28;20026;-55
2022/09/24 21:37:16;;;;;;;4.53;2.13;;;18.70;77.00;;;;;;10363699;28;20084;-54
2022/09/24 21:42:18;;;;;;;4.82;2.50;;;18.60;77.00;;;;;;10363655;28;20180;-56
2022/09/24 21:47:19;;;;;;;3.47;2.28;;;18.60;76.90;;;;;;10379161;28;20029;-56
2022/09/24 21:52:19;;;;;;;3.08;1.73;;;18.60;76.80;;;;;;10363631;28;20109;-55
2022/09/24 21:57:20;;;;;;;3.40;2.00;;;18.60;76.70;;;;;;10362069;28;20076;-55
2022/09/24 22:02:21;;;;;;;3.10;1.67;;;18.60;76.60;;;;;;10361847;28;20688;-56
2022/09/24 22:07:21;;;;;;;3.10;1.58;;;18.60;76.60;;;;;;10362119;28;20122;-56
2022/09/24 22:12:22;;;;;;;4.85;2.42;;;18.60;76.50;;;;;;10379778;28;20056;-55
2022/09/24 22:17:23;;;;;;;3.03;1.85;;;18.60;76.50;;;;;;10376875;28;20092;-56
2022/09/24 22:22:24;;;;;;;4.32;1.77;;;18.60;76.50;;;;;;10391260;28;20034;-56
2022/09/24 22:27:24;;;;;;;3.75;2.15;;;18.60;76.40;;;;;;10369415;28;20022;-56
2022/09/24 22:32:25;;;;;;;3.83;1.95;;;18.60;76.40;;;;;;10370385;28;20112;-56
2022/09/24 22:37:26;;;;;;;2.90;1.88;;;18.60;76.30;;;;;;10368710;28;20061;-56
2022/09/24 22:42:26;;;;;;;4.60;2.13;;;18.60;76.20;;;;;;10370637;28;20556;-56
2022/09/24 22:47:27;;;;;;;2.55;1.80;;;18.50;76.10;;;;;;10394685;28;20050;-56
2022/09/24 22:52:28;;;;;;;4.18;1.60;;;18.50;76.00;;;;;;10368942;28;20050;-56
2022/09/24 22:57:31;;;;;;;3.28;2.22;;;18.50;75.90;;;;;;10382962;28;20580;-56
2022/09/24 23:02:34;;;;;;;3.40;2.08;;;18.50;75.80;;;;;;10369328;28;20045;-56
2022/09/24 23:07:34;;;;;;;4.22;1.48;;;18.50;75.80;;;;;;10368151;28;20026;-56
2022/09/24 23:12:35;;;;;;;4.82;1.85;;;18.50;75.60;;;;;;10367754;28;20497;-56
2022/09/24 23:17:37;;;;;;;4.50;1.73;;;18.50;75.60;;;;;;10372642;28;20025;-56
2022/09/24 23:22:37;;;;;;;4.65;1.38;;;18.50;75.50;;;;;;10367511;28;20096;-56
2022/09/24 23:27:38;;;;;;;3.63;1.70;;;18.50;75.40;;;;;;10365535;28;20034;-55
2022/09/24 23:32:39;;;;;;;2.60;1.48;;;18.50;75.70;;;;;;10364075;28;20053;-56
2022/09/24 23:37:39;;;;;;;2.42;1.40;;;18.60;78.70;;;;;;10367889;28;20049;-55
2022/09/24 23:42:40;;;;;;;2.50;1.70;;;18.60;78.10;;;;;;10380353;28;20129;-56
2022/09/24 23:47:40;;;;;;;2.58;1.58;;;18.60;77.60;;;;;;10367832;28;20061;-55
2022/09/24 23:52:41;;;;;;;2.63;1.70;;;18.60;77.40;;;;;;10367704;28;20064;-56
2022/09/24 23:57:42;;;;;;;2.40;1.58;;;18.60;77.20;;;;;;10374852;28;20101;-55
